createdAt,value
2019-05-02T00:10:26.415Z,56
2019-05-02T00:21:09.167Z,56
2019-05-02T00:31:54.455Z,60
2019-05-02T00:42:38.651Z,60
2019-05-02T00:53:23.405Z,61
2019-05-02T01:04:07.416Z,62
2019-05-02T01:14:50.182Z,65
2019-05-02T01:25:28.525Z,61
2019-05-02T01:36:10.218Z,61
2019-05-02T01:46:53.969Z,61
2019-05-02T01:57:39.985Z,65
2019-05-02T02:08:19.626Z,66
2019-05-02T02:19:05.576Z,66
2019-05-02T02:29:48.318Z,66
2019-05-02T02:40:33.608Z,65
2019-05-02T02:51:21.995Z,66
2019-05-02T03:02:09.199Z,64
2019-05-02T03:12:43.229Z,71
2019-05-02T03:23:24.147Z,71
2019-05-02T03:34:08.688Z,71
2019-05-02T03:44:56.289Z,68
2019-05-02T03:55:36.688Z,67
2019-05-02T04:06:23.356Z,69
2019-05-02T04:17:06.608Z,64
2019-05-02T04:27:50.454Z,66
2019-05-02T04:38:44.435Z,68
2019-05-02T04:49:20.108Z,69
2019-05-02T05:00:08.582Z,69
2019-05-02T05:10:47.973Z,70
2019-05-02T05:21:31.398Z,68
2019-05-02T05:32:17.874Z,70
2019-05-02T05:43:02.604Z,69
2019-05-02T05:53:43.679Z,70
2019-05-02T06:04:32.649Z,64
2019-05-02T06:15:12.619Z,66
2019-05-02T06:25:55.543Z,67
2019-05-02T06:36:42.312Z,67
2019-05-02T06:47:27.785Z,65
2019-05-02T06:58:11.828Z,60
2019-05-02T07:08:54.690Z,57
2019-05-02T07:19:39.876Z,53
2019-05-02T07:30:24.415Z,54
2019-05-02T07:41:06.599Z,49
2019-05-02T07:51:52.441Z,52
2019-05-02T08:02:34.811Z,54
2019-05-02T08:13:19.443Z,57
2019-05-02T08:24:03.773Z,57
2019-05-02T08:34:51.890Z,54
2019-05-02T08:45:32.981Z,52
2019-05-02T08:56:16.006Z,51
2019-05-02T09:06:58.613Z,49
2019-05-02T09:17:46.091Z,48
2019-05-02T09:28:25.405Z,49
2019-05-02T09:39:08.521Z,46
2019-05-02T09:49:52.565Z,42
2019-05-02T10:00:36.161Z,39
2019-05-02T10:11:08.834Z,41
2019-05-02T10:21:56.175Z,38
2019-05-02T10:32:32.940Z,40
2019-05-02T10:43:12.669Z,37
2019-05-02T10:53:56.348Z,37
2019-05-02T11:04:38.647Z,36
2019-05-02T11:15:26.725Z,36
2019-05-02T11:26:07.677Z,36
2019-05-02T11:36:52.693Z,36
2019-05-02T11:47:33.008Z,34
2019-05-02T11:58:10.632Z,32
2019-05-02T12:08:53.560Z,31
2019-05-02T12:19:37.591Z,25
2019-05-02T12:30:22.770Z,27
2019-05-02T12:41:19.506Z,18
2019-05-02T12:51:42.972Z,21
2019-05-02T13:02:22.688Z,23
2019-05-02T13:13:12.186Z,20
2019-05-02T13:23:45.767Z,22
2019-05-02T13:34:31.802Z,19
2019-05-02T13:45:06.994Z,15
2019-05-02T13:55:52.354Z,20
2019-05-02T14:06:29.893Z,17
2019-05-02T14:17:13.895Z,15
2019-05-02T14:27:52.424Z,15
2019-05-02T14:38:32.240Z,14
2019-05-02T14:49:07.705Z,12
2019-05-02T14:59:59.099Z,13
2019-05-02T15:10:29.041Z,13
2019-05-02T15:21:03.979Z,15
2019-05-02T15:31:44.984Z,15
2019-05-02T15:42:25.564Z,17
2019-05-02T15:53:09.813Z,18
2019-05-02T16:03:46.230Z,20
2019-05-02T16:14:27.090Z,30
2019-05-02T16:24:56.747Z,25
2019-05-02T16:35:35.906Z,30
2019-05-02T16:46:15.421Z,27
2019-05-02T16:56:53.747Z,27
2019-05-02T17:07:34.933Z,23
2019-05-02T17:18:19.100Z,15
2019-05-02T17:28:54.180Z,9
2019-05-02T17:39:37.350Z,8
2019-05-02T17:50:18.261Z,12
2019-05-02T18:00:56.955Z,15
2019-05-02T18:11:37.889Z,17
2019-05-02T18:22:25.916Z,18
2019-05-02T18:33:07.191Z,21
2019-05-02T18:43:49.108Z,23
2019-05-02T18:54:33.833Z,22
2019-05-02T19:05:19.244Z,23
2019-05-02T19:15:56.921Z,25
2019-05-02T19:26:41.618Z,27
2019-05-02T19:37:16.242Z,31
2019-05-02T19:47:59.294Z,27
2019-05-02T19:58:46.813Z,28
2019-05-02T20:09:26.151Z,28
2019-05-02T20:20:10.079Z,27
2019-05-02T20:30:52.871Z,28
2019-05-02T21:13:32.865Z,34
2019-05-02T21:24:10.253Z,34
2019-05-02T21:34:53.245Z,33
2019-05-02T21:45:36.827Z,27
2019-05-02T21:56:13.953Z,20
2019-05-02T22:06:52.186Z,17
2019-05-02T22:17:32.349Z,17
2019-05-02T22:28:15.186Z,19
2019-05-02T22:38:58.270Z,21
2019-05-02T22:49:42.297Z,20
2019-05-02T23:00:25.184Z,23
2019-05-02T23:11:10.184Z,22
2019-05-02T23:21:52.729Z,22
2019-05-02T23:32:34.244Z,20
2019-05-02T23:43:17.250Z,19
2019-05-02T23:54:02.371Z,15
